createdAt,value
2023-06-25T00:00:33.510Z,12.70
2023-06-25T00:04:50.957Z,12.48
2023-06-25T00:09:08.303Z,13.02
2023-06-25T00:13:25.750Z,13.35
2023-06-25T00:17:48.558Z,14.07
2023-06-25T00:22:06.582Z,14.95
2023-06-25T00:26:24.040Z,16.80
2023-06-25T00:30:41.193Z,13.32
2023-06-25T00:34:59.843Z,14.45
2023-06-25T00:39:17.146Z,13.43
2023-06-25T00:43:34.423Z,14.32
2023-06-25T00:47:52.420Z,14.48
2023-06-25T00:52:12.100Z,13.67
2023-06-25T00:56:30.224Z,16.05
2023-06-25T01:00:49.054Z,14.30
2023-06-25T01:09:32.786Z,14.60
2023-06-25T01:13:50.065Z,16.10
2023-06-25T01:18:07.819Z,14.93
2023-06-25T01:22:34.975Z,14.23
2023-06-25T01:26:55.833Z,14.98
2023-06-25T01:31:13.433Z,13.63
2023-06-25T01:35:30.673Z,13.13
2023-06-25T01:39:53.314Z,14.40
2023-06-25T01:44:25.977Z,14.30
2023-06-25T01:48:43.242Z,14.07
2023-06-25T01:53:00.513Z,17.55
2023-06-25T01:57:17.914Z,17.90
2023-06-25T02:01:35.565Z,16.15
2023-06-25T02:05:52.797Z,19.67
2023-06-25T02:10:10.521Z,17.80
2023-06-25T02:14:27.669Z,17.60
2023-06-25T02:18:45.114Z,17.65
2023-06-25T02:23:02.338Z,18.17
2023-06-25T02:27:20.564Z,17.50
2023-06-25T02:31:38.123Z,16.25
2023-06-25T02:35:56.424Z,17.25
2023-06-25T02:40:13.988Z,16.65
2023-06-25T02:44:31.425Z,18.10
2023-06-25T02:48:48.668Z,16.85
2023-06-25T02:53:06.083Z,15.63
2023-06-25T02:57:30.422Z,16.15
2023-06-25T03:01:47.738Z,17.70
2023-06-25T03:06:05.011Z,17.10
2023-06-25T03:10:31.387Z,15.93
2023-06-25T03:14:49.017Z,15.77
2023-06-25T03:19:06.572Z,16.98
2023-06-25T03:23:23.908Z,16.52
2023-06-25T03:27:41.815Z,17.23
2023-06-25T03:31:59.739Z,15.90
2023-06-25T03:36:18.766Z,17.02
2023-06-25T03:40:36.785Z,17.98
2023-06-25T03:44:55.430Z,19.60
2023-06-25T03:49:12.901Z,16.85
2023-06-25T03:53:30.732Z,19.45
2023-06-25T03:57:48.192Z,16.67
2023-06-25T04:02:06.702Z,15.88
2023-06-25T04:06:23.979Z,16.55
2023-06-25T04:10:41.939Z,16.55
2023-06-25T04:14:59.225Z,14.30
2023-06-25T04:19:17.245Z,12.90
2023-06-25T04:23:35.226Z,14.07
2023-06-25T04:27:52.548Z,13.30
2023-06-25T04:32:10.572Z,13.27
2023-06-25T04:36:27.900Z,12.60
2023-06-25T04:40:45.291Z,13.82
2023-06-25T04:45:02.595Z,13.38
2023-06-25T04:49:19.781Z,13.00
2023-06-25T04:53:37.140Z,12.77
2023-06-25T04:57:54.567Z,13.73
2023-06-25T05:02:11.816Z,13.10
2023-06-25T05:06:29.446Z,12.60
2023-06-25T05:10:46.694Z,13.00
2023-06-25T05:15:04.476Z,12.80
2023-06-25T05:19:22.209Z,14.13
2023-06-25T05:23:43.784Z,13.50
2023-06-25T05:28:04.987Z,13.05
2023-06-25T05:32:22.288Z,13.45
2023-06-25T05:36:40.269Z,12.67
2023-06-25T05:40:57.533Z,13.80
2023-06-25T05:45:14.964Z,13.30
2023-06-25T05:49:32.199Z,13.25
2023-06-25T05:53:52.180Z,13.55
2023-06-25T05:58:09.827Z,13.13
2023-06-25T06:02:27.200Z,12.40
2023-06-25T06:06:44.579Z,11.80
2023-06-25T06:11:01.859Z,11.85
2023-06-25T06:15:19.141Z,11.43
2023-06-25T06:19:36.850Z,11.55
2023-06-25T06:23:54.129Z,11.18
2023-06-25T06:28:13.393Z,8.68
2023-06-25T06:32:30.638Z,8.60
2023-06-25T06:36:48.407Z,8.48
2023-06-25T06:41:05.660Z,9.18
2023-06-25T06:45:23.056Z,9.23
2023-06-25T06:49:40.534Z,8.70
2023-06-25T06:53:57.793Z,8.63
2023-06-25T06:58:15.279Z,8.30
2023-06-25T07:02:33.025Z,7.22
2023-06-25T07:06:50.335Z,7.97
2023-06-25T07:11:08.036Z,7.60
2023-06-25T07:15:25.234Z,8.23
2023-06-25T07:19:42.576Z,7.00
2023-06-25T07:23:59.925Z,7.30
2023-06-25T07:28:17.272Z,7.10
2023-06-25T07:32:34.729Z,7.03
2023-06-25T07:36:54.700Z,6.85
2023-06-25T07:41:12.062Z,7.13
2023-06-25T07:45:29.334Z,6.65
2023-06-25T07:49:46.591Z,7.05
2023-06-25T07:54:04.048Z,7.00
2023-06-25T07:58:21.237Z,7.00
2023-06-25T08:02:38.872Z,6.38
2023-06-25T08:06:56.182Z,7.03
2023-06-25T08:11:13.527Z,7.65
2023-06-25T08:15:30.842Z,7.00
2023-06-25T08:19:48.307Z,6.80
2023-06-25T08:24:05.976Z,6.10
2023-06-25T08:28:23.513Z,6.57
2023-06-25T08:32:40.977Z,6.40
2023-06-25T08:36:58.336Z,6.27
2023-06-25T08:41:15.599Z,6.45
2023-06-25T08:45:33.355Z,6.30
2023-06-25T08:49:54.312Z,6.65
2023-06-25T08:54:11.553Z,6.90
2023-06-25T08:58:30.667Z,6.40
2023-06-25T09:02:49.264Z,6.20
2023-06-25T09:07:13.357Z,5.10
2023-06-25T09:11:32.886Z,4.55
2023-06-25T09:15:50.826Z,4.50
2023-06-25T09:20:09.046Z,4.38
2023-06-25T09:29:00.874Z,4.80
2023-06-25T09:33:18.485Z,5.40
2023-06-25T09:37:38.812Z,5.23
2023-06-25T09:41:56.942Z,5.10
2023-06-25T09:46:15.560Z,5.00
2023-06-25T09:50:39.330Z,5.45
2023-06-25T09:54:57.759Z,5.30
2023-06-25T09:59:15.410Z,5.53
2023-06-25T10:03:34.416Z,5.13
2023-06-25T10:07:53.051Z,5.63
2023-06-25T10:12:11.476Z,5.40
2023-06-25T10:16:38.939Z,5.57
2023-06-25T10:21:02.398Z,5.40
2023-06-25T10:25:29.992Z,5.38
2023-06-25T10:29:47.538Z,4.90
2023-06-25T10:34:09.022Z,5.50
2023-06-25T10:38:26.671Z,5.57
2023-06-25T10:42:44.968Z,5.10
2023-06-25T10:47:07.662Z,4.82
2023-06-25T10:51:25.629Z,4.68
2023-06-25T11:00:04.507Z,4.93
2023-06-25T11:04:21.788Z,5.18
2023-06-25T11:08:42.633Z,4.70
2023-06-25T11:13:00.297Z,4.80
2023-06-25T11:17:18.293Z,4.72
2023-06-25T11:21:36.896Z,4.50
2023-06-25T11:25:54.406Z,4.60
2023-06-25T11:30:12.112Z,4.63
2023-06-25T11:34:29.578Z,4.47
2023-06-25T11:38:47.314Z,4.70
2023-06-25T11:43:05.273Z,4.85
2023-06-25T11:47:22.899Z,4.88
2023-06-25T11:51:40.160Z,4.18
2023-06-25T11:55:57.681Z,4.60
2023-06-25T12:00:15.831Z,4.97
2023-06-25T12:04:33.151Z,4.88
2023-06-25T12:08:50.497Z,4.57
2023-06-25T12:13:07.843Z,4.90
2023-06-25T12:17:25.166Z,4.85
2023-06-25T12:21:42.575Z,4.30
2023-06-25T12:25:59.901Z,4.63
2023-06-25T12:30:17.162Z,4.30
2023-06-25T12:34:34.432Z,4.50
2023-06-25T12:38:54.560Z,4.13
2023-06-25T12:43:13.353Z,4.80
2023-06-25T12:47:30.654Z,4.28
2023-06-25T12:51:50.553Z,4.07
2023-06-25T12:56:10.145Z,4.60
2023-06-25T13:00:40.970Z,4.72
2023-06-25T13:05:04.230Z,4.13
2023-06-25T13:09:21.706Z,4.53
2023-06-25T13:13:39.329Z,4.30
2023-06-25T13:17:56.932Z,4.10
2023-06-25T13:22:14.375Z,4.07
2023-06-25T13:26:31.942Z,4.20
2023-06-25T13:30:49.489Z,4.13
2023-06-25T13:35:07.479Z,4.07
2023-06-25T13:39:24.966Z,4.40
2023-06-25T13:43:42.284Z,4.00
2023-06-25T13:48:00.119Z,4.10
2023-06-25T13:52:17.591Z,4.50
2023-06-25T13:56:35.101Z,3.97
2023-06-25T14:00:53.384Z,4.00
2023-06-25T14:05:10.697Z,4.10
2023-06-25T14:09:28.140Z,4.00
2023-06-25T14:13:45.519Z,3.75
2023-06-25T14:18:03.425Z,3.80
2023-06-25T14:22:20.691Z,4.15
2023-06-25T14:26:38.070Z,3.88
2023-06-25T14:30:56.039Z,3.50
2023-06-25T14:39:30.482Z,3.58
2023-06-25T14:43:47.694Z,3.43
2023-06-25T14:48:05.259Z,3.57
2023-06-25T14:52:22.753Z,3.28
2023-06-25T14:56:40.006Z,3.35
2023-06-25T15:00:57.329Z,3.60
2023-06-25T15:05:14.753Z,3.53
2023-06-25T15:09:32.509Z,3.42
2023-06-25T15:13:49.952Z,3.45
2023-06-25T15:18:07.291Z,3.38
2023-06-25T15:22:24.480Z,3.22
2023-06-25T15:26:41.664Z,3.33
2023-06-25T15:30:59.084Z,3.20
2023-06-25T15:35:16.447Z,3.10
2023-06-25T15:39:33.720Z,3.10
2023-06-25T15:43:50.920Z,3.30
2023-06-25T15:48:08.907Z,3.40
2023-06-25T15:52:27.178Z,2.92
2023-06-25T15:56:48.702Z,3.00
2023-06-25T16:01:05.932Z,3.13
2023-06-25T16:05:23.107Z,3.20
2023-06-25T16:09:40.365Z,2.85
2023-06-25T16:13:57.525Z,3.63
2023-06-25T16:18:14.907Z,3.22
2023-06-25T16:22:32.366Z,3.13
2023-06-25T16:26:49.624Z,3.27
2023-06-25T16:31:06.891Z,3.20
2023-06-25T16:35:24.145Z,3.38
2023-06-25T16:39:41.364Z,3.30
2023-06-25T16:43:58.600Z,3.45
2023-06-25T16:48:15.843Z,3.28
2023-06-25T16:52:33.342Z,3.00
2023-06-25T16:56:50.711Z,3.40
2023-06-25T17:01:07.917Z,3.22
2023-06-25T17:05:25.167Z,3.45
2023-06-25T17:09:42.801Z,3.20
2023-06-25T17:14:00.288Z,3.10
2023-06-25T17:18:18.701Z,3.35
2023-06-25T17:22:35.919Z,4.03
2023-06-25T17:26:53.219Z,3.70
2023-06-25T17:31:10.470Z,3.67
2023-06-25T17:35:28.797Z,3.72
2023-06-25T17:39:46.132Z,3.78
2023-06-25T17:44:03.471Z,3.65
2023-06-25T17:48:20.715Z,3.70
2023-06-25T17:52:38.315Z,3.60
2023-06-25T17:56:55.539Z,4.00
2023-06-25T18:01:12.774Z,3.40
2023-06-25T18:05:30.165Z,3.90
2023-06-25T18:09:48.617Z,3.53
2023-06-25T18:14:06.028Z,4.78
2023-06-25T18:18:24.017Z,4.50
2023-06-25T18:22:41.400Z,3.90
2023-06-25T18:26:59.153Z,3.90
2023-06-25T18:31:16.624Z,4.20
2023-06-25T18:35:35.554Z,4.35
2023-06-25T18:39:52.792Z,4.43
2023-06-25T18:44:09.996Z,3.88
2023-06-25T18:48:27.288Z,3.80
2023-06-25T18:52:44.949Z,4.10
2023-06-25T18:57:02.287Z,4.32
2023-06-25T19:01:19.572Z,4.07
2023-06-25T19:05:37.020Z,4.38
2023-06-25T19:09:54.743Z,5.05
2023-06-25T19:14:12.019Z,4.55
2023-06-25T19:18:30.866Z,4.50
2023-06-25T19:23:12.776Z,4.63
2023-06-25T19:27:25.416Z,4.95
2023-06-25T19:31:42.796Z,5.15
2023-06-25T19:36:00.248Z,5.00
2023-06-25T19:40:17.658Z,5.47
2023-06-25T19:44:35.118Z,5.75
2023-06-25T19:48:53.950Z,5.78
2023-06-25T19:53:11.439Z,5.05
2023-06-25T19:57:28.960Z,5.10
2023-06-25T20:01:46.601Z,5.82
2023-06-25T20:06:04.061Z,6.38
2023-06-25T20:10:21.410Z,7.00
2023-06-25T20:14:38.743Z,8.25
2023-06-25T20:18:56.062Z,8.48
2023-06-25T20:23:14.716Z,8.43
2023-06-25T20:27:32.473Z,7.85
2023-06-25T20:31:49.770Z,7.45
2023-06-25T20:36:07.318Z,7.32
2023-06-25T20:40:25.049Z,7.15
2023-06-25T20:44:42.317Z,6.88
2023-06-25T20:48:59.557Z,6.70
2023-06-25T20:53:16.761Z,6.30
2023-06-25T20:57:34.019Z,6.18
2023-06-25T21:01:51.442Z,6.55
2023-06-25T21:06:08.758Z,6.03
2023-06-25T21:10:26.316Z,5.75
2023-06-25T21:14:43.476Z,6.55
2023-06-25T21:19:00.705Z,6.70
2023-06-25T21:23:18.162Z,6.45
2023-06-25T21:27:35.407Z,6.85
2023-06-25T21:31:52.644Z,6.97
2023-06-25T21:36:09.831Z,6.85
2023-06-25T21:40:27.001Z,6.55
2023-06-25T21:44:44.160Z,6.78
2023-06-25T21:49:01.897Z,6.82
2023-06-25T21:53:20.529Z,7.35
2023-06-25T21:57:38.075Z,7.50
2023-06-25T22:01:55.425Z,7.57
2023-06-25T22:06:13.982Z,7.50
2023-06-25T22:10:31.288Z,6.40
2023-06-25T22:14:48.912Z,6.63
2023-06-25T22:19:06.153Z,6.25
2023-06-25T22:23:23.419Z,6.63
2023-06-25T22:27:51.131Z,6.68
2023-06-25T22:32:12.120Z,6.53
2023-06-25T22:36:29.495Z,7.40
2023-06-25T22:40:46.723Z,6.20
2023-06-25T22:45:05.667Z,7.43
2023-06-25T22:49:22.945Z,7.82
2023-06-25T22:53:40.195Z,7.57
2023-06-25T22:57:57.589Z,7.40
2023-06-25T23:02:15.012Z,7.90
2023-06-25T23:06:32.632Z,7.20
2023-06-25T23:10:49.789Z,7.55
2023-06-25T23:15:07.790Z,7.90
2023-06-25T23:19:25.673Z,7.50
2023-06-25T23:23:46.220Z,8.33
2023-06-25T23:28:04.139Z,8.65
2023-06-25T23:32:21.561Z,8.75
2023-06-25T23:36:38.780Z,8.05
2023-06-25T23:40:56.018Z,9.15
2023-06-25T23:45:13.614Z,8.35
2023-06-25T23:49:30.923Z,7.95
2023-06-25T23:53:48.269Z,8.25
2023-06-25T23:58:05.644Z,8.60
